Time;durP1;ratioP1;P1;durP2;ratioP2;P2;SDS_P1;SDS_P2;PMS_P1;PMS_P2;Temp;Humidity;BMP_temperature;BMP_pressure;BME280_temperature;BME280_humidity;BME280_pressure;Samples;Min_cycle;Max_cycle;Signal;HPM_P1;HPM_P2
2023/11/06 00:01:52;;;;;;;21.07;19.33;;;;;;;;;;5120552;28;20923;-79
2023/11/06 00:04:19;;;;;;;19.30;18.00;;;;;;;;;;5120006;28;20503;-79
2023/11/06 00:06:47;;;;;;;20.00;18.63;;;;;;;;;;5120481;28;20447;-79
2023/11/06 00:09:14;;;;;;;20.90;19.23;;;;;;;;;;5120176;28;20443;-80
2023/11/06 00:11:41;;;;;;;22.57;19.70;;;;;;;;;;5120878;27;20479;-79
2023/11/06 00:14:09;;;;;;;23.97;21.43;;;;;;;;;;5129828;27;20809;-81
2023/11/06 00:16:37;;;;;;;20.97;19.53;;;;;;;;;;5122381;27;20459;-80
2023/11/06 00:19:05;;;;;;;19.70;18.50;;;;;;;;;;5119455;27;20463;-80
2023/11/06 00:21:32;;;;;;;18.87;17.73;;;;;;;;;;5123104;27;20455;-80
2023/11/06 00:24:00;;;;;;;18.60;17.57;;;;;;;;;;5139297;27;20447;-79
2023/11/06 00:26:27;;;;;;;20.17;18.63;;;;;;;;;;5137953;27;20486;-79
2023/11/06 00:28:55;;;;;;;20.00;18.60;;;;;;;;;;5120452;27;21002;-79
2023/11/06 00:31:22;;;;;;;20.70;19.30;;;;;;;;;;5120057;28;20877;-79
2023/11/06 00:33:49;;;;;;;19.40;18.40;;;;;;;;;;5119433;28;20452;-78
2023/11/06 00:36:19;;;;;;;20.07;18.33;;;;;;;;;;5120133;28;20447;-79
2023/11/06 00:38:46;;;;;;;18.90;17.80;;;;;;;;;;5119353;28;20548;-79
2023/11/06 00:41:15;;;;;;;18.70;17.63;;;;;;;;;;5118804;28;20470;-79
2023/11/06 00:43:42;;;;;;;18.80;17.80;;;;;;;;;;5119639;27;20473;-80
2023/11/06 00:46:09;;;;;;;19.20;18.13;;;;;;;;;;5118746;28;20845;-80
2023/11/06 00:48:37;;;;;;;18.30;17.40;;;;;;;;;;5118292;28;20470;-79
2023/11/06 00:51:04;;;;;;;19.37;18.17;;;;;;;;;;5118417;28;20475;-79
2023/11/06 00:53:31;;;;;;;20.17;18.70;;;;;;;;;;5119137;28;20440;-79
2023/11/06 00:55:58;;;;;;;19.93;18.43;;;;;;;;;;5118383;28;20823;-79
2023/11/06 00:58:27;;;;;;;20.50;18.87;;;;;;;;;;5118400;28;20907;-79
2023/11/06 01:00:54;;;;;;;18.13;16.97;;;;;;;;;;5118793;28;20467;-79
2023/11/06 01:03:21;;;;;;;17.83;16.60;;;;;;;;;;5119909;28;20418;-79
2023/11/06 01:05:49;;;;;;;18.20;17.03;;;;;;;;;;5118816;28;20469;-79
2023/11/06 01:08:16;;;;;;;18.10;16.83;;;;;;;;;;5119376;28;20434;-79
2023/11/06 01:10:43;;;;;;;19.00;17.67;;;;;;;;;;5119164;28;20480;-80
2023/11/06 01:13:13;;;;;;;17.10;16.23;;;;;;;;;;5119235;28;20436;-78
2023/11/06 01:15:42;;;;;;;19.33;18.00;;;;;;;;;;5118379;28;20423;-80
2023/11/06 01:18:11;;;;;;;16.50;15.60;;;;;;;;;;5119035;28;20501;-80
2023/11/06 01:20:38;;;;;;;18.87;17.30;;;;;;;;;;5117896;28;20452;-78
2023/11/06 01:23:06;;;;;;;17.67;16.47;;;;;;;;;;5117544;28;20452;-79
2023/11/06 01:25:33;;;;;;;18.80;17.60;;;;;;;;;;5117281;27;20543;-80
2023/11/06 01:28:00;;;;;;;18.23;17.13;;;;;;;;;;5117950;28;20466;-79
2023/11/06 01:30:27;;;;;;;18.50;17.23;;;;;;;;;;5117741;28;20478;-80
2023/11/06 01:32:56;;;;;;;18.17;16.97;;;;;;;;;;5118462;28;20456;-80
2023/11/06 01:35:25;;;;;;;17.90;16.90;;;;;;;;;;5129846;27;20450;-80
2023/11/06 01:37:52;;;;;;;18.10;17.10;;;;;;;;;;5138581;27;20475;-79
2023/11/06 01:40:19;;;;;;;17.77;16.87;;;;;;;;;;5138780;27;20413;-80
2023/11/06 01:42:46;;;;;;;18.03;17.00;;;;;;;;;;5138374;27;20437;-80
2023/11/06 01:45:13;;;;;;;18.20;17.20;;;;;;;;;;5138533;27;20417;-79
2023/11/06 01:47:41;;;;;;;18.40;17.20;;;;;;;;;;5136148;27;20454;-80
2023/11/06 01:50:10;;;;;;;18.53;17.27;;;;;;;;;;5138446;28;20427;-79
2023/11/06 01:52:37;;;;;;;17.70;16.80;;;;;;;;;;5138709;28;20934;-79
2023/11/06 01:55:04;;;;;;;19.33;17.87;;;;;;;;;;5137381;28;20425;-79
2023/11/06 01:57:31;;;;;;;17.77;16.77;;;;;;;;;;5138226;28;20458;-80
2023/11/06 01:59:58;;;;;;;17.53;16.70;;;;;;;;;;5138029;28;20451;-79
2023/11/06 02:02:27;;;;;;;18.53;17.20;;;;;;;;;;5138348;28;20780;-79
2023/11/06 02:04:54;;;;;;;17.53;16.57;;;;;;;;;;5137829;28;20475;-79
2023/11/06 02:07:22;;;;;;;18.77;17.20;;;;;;;;;;5137927;28;20474;-79
2023/11/06 02:09:49;;;;;;;17.00;16.10;;;;;;;;;;5139406;27;20459;-79
2023/11/06 02:12:17;;;;;;;17.43;16.63;;;;;;;;;;5136144;27;20486;-80
2023/11/06 02:14:51;;;;;;;19.90;18.57;;;;;;;;;;5121294;28;20454;-79
2023/11/06 02:17:18;;;;;;;18.90;17.53;;;;;;;;;;5121248;28;20466;-80
2023/11/06 02:19:45;;;;;;;17.30;16.30;;;;;;;;;;5121372;28;20448;-79
2023/11/06 02:22:13;;;;;;;17.63;16.50;;;;;;;;;;5121796;28;20832;-79
2023/11/06 02:24:41;;;;;;;17.90;16.70;;;;;;;;;;5121318;28;20931;-80
2023/11/06 02:27:08;;;;;;;17.80;16.60;;;;;;;;;;5121098;28;20460;-79
2023/11/06 02:29:36;;;;;;;17.97;16.77;;;;;;;;;;5121120;28;20829;-80
2023/11/06 02:32:03;;;;;;;18.00;16.60;;;;;;;;;;5121595;28;20446;-80
2023/11/06 02:34:30;;;;;;;18.10;16.70;;;;;;;;;;5120457;27;20435;-80
2023/11/06 02:36:57;;;;;;;17.90;16.50;;;;;;;;;;5121182;27;20479;-79
2023/11/06 02:39:25;;;;;;;18.27;17.20;;;;;;;;;;5119963;28;20438;-79
2023/11/06 02:41:54;;;;;;;17.57;16.57;;;;;;;;;;5120663;28;20452;-79
2023/11/06 02:44:21;;;;;;;17.07;16.17;;;;;;;;;;5120164;28;20475;-79
2023/11/06 02:46:48;;;;;;;17.40;16.40;;;;;;;;;;5120834;28;20453;-79
2023/11/06 02:49:15;;;;;;;18.07;16.60;;;;;;;;;;5120761;28;20433;-79
2023/11/06 02:51:42;;;;;;;18.47;16.97;;;;;;;;;;5120498;28;20465;-80
2023/11/06 02:54:09;;;;;;;18.93;17.70;;;;;;;;;;5120068;28;20420;-79
2023/11/06 02:56:36;;;;;;;18.23;17.33;;;;;;;;;;5120245;28;20527;-79
2023/11/06 02:59:07;;;;;;;18.20;16.80;;;;;;;;;;5120534;28;20427;-79
2023/11/06 03:01:34;;;;;;;18.20;17.10;;;;;;;;;;5120678;28;20757;-78
2023/11/06 03:04:01;;;;;;;19.40;18.27;;;;;;;;;;5119260;28;20443;-79
2023/11/06 03:06:28;;;;;;;19.40;18.00;;;;;;;;;;5119383;28;20475;-79
2023/11/06 03:11:59;;;;;;;19.53;18.33;;;;;;;;;;5118215;28;20462;-80
2023/11/06 03:14:27;;;;;;;19.20;17.60;;;;;;;;;;5118923;28;20966;-79
2023/11/06 03:16:55;;;;;;;18.90;17.70;;;;;;;;;;5118269;28;20447;-79
2023/11/06 03:19:22;;;;;;;18.37;17.30;;;;;;;;;;5119878;28;20460;-79
2023/11/06 03:21:51;;;;;;;18.87;17.77;;;;;;;;;;5119822;28;20519;-79
2023/11/06 03:24:18;;;;;;;19.50;17.97;;;;;;;;;;5119531;28;20504;-79
2023/11/06 03:26:45;;;;;;;18.90;17.53;;;;;;;;;;5119922;28;20785;-79
2023/11/06 03:29:12;;;;;;;18.93;17.60;;;;;;;;;;5119768;28;20482;-79
2023/11/06 03:31:41;;;;;;;18.57;17.60;;;;;;;;;;5119746;28;20502;-80
2023/11/06 03:34:08;;;;;;;18.10;17.10;;;;;;;;;;5118807;28;20448;-79
2023/11/06 03:36:41;;;;;;;19.57;18.17;;;;;;;;;;5119944;28;20444;-79
2023/11/06 03:39:08;;;;;;;18.40;17.30;;;;;;;;;;5119651;28;20447;-79
2023/11/06 03:41:35;;;;;;;19.87;18.60;;;;;;;;;;5119603;28;20455;-79
2023/11/06 03:44:02;;;;;;;17.67;16.67;;;;;;;;;;5119232;28;20843;-80
2023/11/06 03:46:29;;;;;;;19.30;17.47;;;;;;;;;;5119841;28;20462;-80
2023/11/06 03:48:58;;;;;;;18.70;17.40;;;;;;;;;;5119327;28;20468;-80
2023/11/06 03:51:25;;;;;;;18.93;17.67;;;;;;;;;;5119920;28;20458;-80
2023/11/06 03:53:52;;;;;;;18.30;16.83;;;;;;;;;;5118734;28;20448;-80
2023/11/06 03:56:19;;;;;;;17.70;16.20;;;;;;;;;;5119185;28;20443;-79
2023/11/06 03:58:46;;;;;;;19.90;18.60;;;;;;;;;;5119574;28;20451;-80
2023/11/06 04:01:13;;;;;;;19.67;18.00;;;;;;;;;;5119957;28;20784;-79
2023/11/06 04:03:40;;;;;;;18.20;17.10;;;;;;;;;;5119590;28;21006;-81
2023/11/06 04:06:09;;;;;;;17.90;16.77;;;;;;;;;;5118537;28;20902;-80
2023/11/06 04:08:36;;;;;;;19.03;17.03;;;;;;;;;;5119393;28;20464;-80
2023/11/06 04:11:05;;;;;;;18.20;17.10;;;;;;;;;;5118028;28;20462;-80
2023/11/06 04:13:32;;;;;;;17.23;16.43;;;;;;;;;;5119126;28;20471;-79
2023/11/06 04:16:00;;;;;;;17.10;16.30;;;;;;;;;;5118775;28;20429;-79
2023/11/06 04:18:27;;;;;;;19.70;18.30;;;;;;;;;;5118951;28;20490;-79
2023/11/06 04:20:54;;;;;;;19.43;17.60;;;;;;;;;;5117022;28;20443;-79
2023/11/06 04:23:23;;;;;;;17.77;16.60;;;;;;;;;;5118351;28;20874;-79
2023/11/06 04:25:50;;;;;;;17.90;16.80;;;;;;;;;;5117660;28;20444;-79
2023/11/06 04:28:17;;;;;;;17.90;17.10;;;;;;;;;;5118001;28;20439;-80
2023/11/06 04:30:44;;;;;;;18.20;17.10;;;;;;;;;;5118196;28;20443;-78
2023/11/06 04:33:11;;;;;;;18.27;16.93;;;;;;;;;;5116771;28;20480;-79
2023/11/06 04:35:38;;;;;;;17.57;16.63;;;;;;;;;;5117026;28;20443;-79
2023/11/06 04:38:05;;;;;;;18.83;17.43;;;;;;;;;;5117602;28;20476;-78
2023/11/06 04:40:34;;;;;;;18.93;17.73;;;;;;;;;;5117635;28;20451;-79
2023/11/06 04:43:01;;;;;;;18.43;17.23;;;;;;;;;;5118395;28;20428;-80
2023/11/06 04:45:28;;;;;;;17.93;16.93;;;;;;;;;;5117473;28;20447;-79
2023/11/06 04:47:55;;;;;;;18.10;17.10;;;;;;;;;;5117413;28;20438;-78
2023/11/06 04:50:22;;;;;;;21.33;19.73;;;;;;;;;;5117517;28;20422;-79
2023/11/06 04:52:49;;;;;;;18.70;17.70;;;;;;;;;;5117172;28;21023;-79
2023/11/06 04:55:16;;;;;;;19.30;18.10;;;;;;;;;;5116760;28;20458;-79
2023/11/06 04:57:45;;;;;;;21.90;20.30;;;;;;;;;;5116301;28;20471;-80
2023/11/06 05:00:12;;;;;;;18.03;16.80;;;;;;;;;;5116878;28;20420;-79
2023/11/06 05:02:39;;;;;;;25.33;23.37;;;;;;;;;;5117133;28;21226;-79
2023/11/06 05:05:09;;;;;;;54.20;48.60;;;;;;;;;;5115638;28;20472;-79
2023/11/06 05:07:36;;;;;;;30.00;27.40;;;;;;;;;;5117161;28;20506;-79
2023/11/06 05:10:05;;;;;;;24.53;22.77;;;;;;;;;;5117177;28;20418;-80
2023/11/06 05:12:32;;;;;;;62.87;56.53;;;;;;;;;;5117135;28;20492;-78
2023/11/06 05:15:03;;;;;;;31.70;29.43;;;;;;;;;;5117094;28;20437;-78
2023/11/06 05:17:30;;;;;;;22.53;20.87;;;;;;;;;;5117486;28;20467;-79
2023/11/06 05:19:57;;;;;;;17.83;16.93;;;;;;;;;;5117599;28;20447;-78
2023/11/06 05:22:24;;;;;;;18.33;17.23;;;;;;;;;;5117466;28;20448;-79
2023/11/06 05:24:51;;;;;;;19.17;18.20;;;;;;;;;;5116642;28;20448;-79
2023/11/06 05:27:18;;;;;;;19.33;18.23;;;;;;;;;;5117128;28;20942;-79
2023/11/06 05:29:45;;;;;;;18.70;17.50;;;;;;;;;;5117176;28;20424;-80
2023/11/06 05:32:14;;;;;;;19.40;17.97;;;;;;;;;;5116964;28;20488;-79
2023/11/06 05:34:41;;;;;;;18.03;17.13;;;;;;;;;;5116809;28;20476;-79
2023/11/06 05:37:08;;;;;;;18.00;17.00;;;;;;;;;;5116542;28;20534;-79
2023/11/06 05:39:38;;;;;;;19.53;18.03;;;;;;;;;;5117132;28;20444;-79
2023/11/06 05:42:05;;;;;;;18.53;17.60;;;;;;;;;;5116230;28;20498;-79
2023/11/06 05:44:33;;;;;;;18.40;17.30;;;;;;;;;;5116397;28;20438;-78
2023/11/06 05:47:00;;;;;;;18.37;17.37;;;;;;;;;;5116984;28;20460;-79
2023/11/06 05:49:28;;;;;;;19.10;18.00;;;;;;;;;;5116869;28;20423;-79
2023/11/06 05:51:55;;;;;;;18.90;17.90;;;;;;;;;;5116276;28;20492;-80
2023/11/06 05:54:23;;;;;;;18.83;17.83;;;;;;;;;;5116039;28;20439;-79
2023/11/06 05:56:50;;;;;;;18.67;17.33;;;;;;;;;;5116336;28;20427;-78
2023/11/06 05:59:18;;;;;;;18.93;17.83;;;;;;;;;;5115488;28;20444;-79
2023/11/06 06:01:46;;;;;;;18.97;17.40;;;;;;;;;;5116049;28;20497;-80
2023/11/06 06:04:13;;;;;;;18.00;16.77;;;;;;;;;;5114175;28;20477;-79
2023/11/06 06:06:41;;;;;;;19.20;17.43;;;;;;;;;;5115718;28;20423;-79
2023/11/06 06:09:09;;;;;;;19.03;18.03;;;;;;;;;;5115325;28;20929;-79
2023/11/06 06:11:38;;;;;;;19.37;17.83;;;;;;;;;;5115758;28;20443;-78
2023/11/06 06:14:05;;;;;;;18.90;17.70;;;;;;;;;;5115041;28;20870;-79
2023/11/06 06:16:32;;;;;;;19.70;18.17;;;;;;;;;;5115346;28;20459;-80
2023/11/06 06:18:59;;;;;;;17.93;16.80;;;;;;;;;;5115495;28;20473;-80
2023/11/06 06:21:26;;;;;;;18.80;17.50;;;;;;;;;;5115819;28;21117;-79
2023/11/06 06:23:54;;;;;;;19.10;17.87;;;;;;;;;;5114493;28;20463;-78
2023/11/06 06:26:21;;;;;;;18.83;17.63;;;;;;;;;;5116178;28;20455;-79
2023/11/06 06:28:49;;;;;;;20.87;19.20;;;;;;;;;;5114712;28;20463;-79
2023/11/06 06:31:18;;;;;;;19.23;17.93;;;;;;;;;;5115391;28;20530;-79
2023/11/06 06:33:45;;;;;;;18.43;17.20;;;;;;;;;;5114608;28;20462;-81
2023/11/06 06:36:12;;;;;;;17.90;16.90;;;;;;;;;;5114873;28;20419;-78
2023/11/06 06:38:39;;;;;;;18.97;17.70;;;;;;;;;;5114924;28;20548;-78
2023/11/06 06:41:08;;;;;;;18.87;17.30;;;;;;;;;;5126126;27;20434;-79
2023/11/06 06:43:35;;;;;;;19.20;17.83;;;;;;;;;;5136249;28;20448;-79
2023/11/06 06:46:02;;;;;;;18.80;17.80;;;;;;;;;;5134991;28;20435;-80
2023/11/06 06:48:29;;;;;;;18.93;17.73;;;;;;;;;;5115173;28;20496;-80
2023/11/06 06:50:57;;;;;;;19.50;18.33;;;;;;;;;;5115084;28;20472;-79
2023/11/06 06:53:24;;;;;;;19.10;18.00;;;;;;;;;;5115241;28;20486;-79
2023/11/06 06:55:51;;;;;;;18.10;17.10;;;;;;;;;;5114342;28;20459;-79
2023/11/06 06:58:19;;;;;;;18.53;17.27;;;;;;;;;;5118940;28;20450;-79
2023/11/06 07:00:47;;;;;;;19.87;18.70;;;;;;;;;;5119829;27;20805;-79
2023/11/06 07:03:14;;;;;;;18.27;17.07;;;;;;;;;;5139551;27;20514;-78
2023/11/06 07:05:41;;;;;;;18.93;17.43;;;;;;;;;;5129272;27;20438;-79
2023/11/06 07:08:08;;;;;;;20.33;19.13;;;;;;;;;;5118590;28;20623;-79
2023/11/06 07:10:36;;;;;;;20.80;19.20;;;;;;;;;;5118701;28;20459;-78
2023/11/06 07:13:04;;;;;;;19.10;18.07;;;;;;;;;;5118714;28;20475;-79
2023/11/06 07:15:32;;;;;;;19.13;18.03;;;;;;;;;;5118965;28;20480;-78
2023/11/06 07:18:01;;;;;;;18.27;17.30;;;;;;;;;;5132225;27;20482;-78
2023/11/06 07:20:29;;;;;;;19.37;17.97;;;;;;;;;;5140986;27;20426;-78
2023/11/06 07:22:57;;;;;;;19.70;18.20;;;;;;;;;;5141038;27;20447;-78
2023/11/06 07:25:24;;;;;;;20.60;19.20;;;;;;;;;;5140510;27;20439;-78
2023/11/06 07:27:51;;;;;;;19.63;18.60;;;;;;;;;;5141213;27;20441;-78
2023/11/06 07:30:19;;;;;;;19.20;18.00;;;;;;;;;;5140220;27;20841;-78
2023/11/06 07:32:47;;;;;;;20.17;18.77;;;;;;;;;;5140558;27;20850;-79
2023/11/06 07:35:14;;;;;;;20.43;18.87;;;;;;;;;;5139040;27;20965;-80
2023/11/06 07:37:41;;;;;;;20.07;18.87;;;;;;;;;;5141302;27;20452;-79
2023/11/06 07:40:11;;;;;;;19.40;18.00;;;;;;;;;;5140062;27;20438;-78
2023/11/06 07:42:38;;;;;;;19.63;17.80;;;;;;;;;;5140350;27;20486;-79
2023/11/06 07:45:07;;;;;;;19.40;18.20;;;;;;;;;;5142323;27;20447;-78
2023/11/06 07:47:36;;;;;;;22.17;20.37;;;;;;;;;;5141917;27;21021;-79
2023/11/06 07:50:05;;;;;;;19.50;18.33;;;;;;;;;;5142013;27;20459;-79
2023/11/06 07:52:32;;;;;;;19.10;18.00;;;;;;;;;;5141303;27;20498;-79
2023/11/06 07:54:59;;;;;;;19.07;17.97;;;;;;;;;;5141349;27;20888;-79
2023/11/06 07:57:27;;;;;;;18.97;17.77;;;;;;;;;;5142605;27;20441;-78
2023/11/06 07:59:54;;;;;;;22.30;20.70;;;;;;;;;;5141752;27;20435;-80
2023/11/06 08:02:21;;;;;;;20.37;19.03;;;;;;;;;;5140825;27;21236;-79
2023/11/06 08:04:49;;;;;;;19.17;17.77;;;;;;;;;;5139116;27;20458;-78
2023/11/06 08:07:17;;;;;;;19.27;17.67;;;;;;;;;;5125399;27;20478;-79
2023/11/06 08:09:44;;;;;;;18.87;17.67;;;;;;;;;;5122335;28;20455;-80
2023/11/06 08:12:14;;;;;;;18.93;17.60;;;;;;;;;;5127418;27;20815;-81
2023/11/06 08:14:41;;;;;;;18.87;17.57;;;;;;;;;;5123759;28;20457;-81
2023/11/06 08:17:08;;;;;;;19.20;18.17;;;;;;;;;;5122416;28;20507;-81
2023/11/06 08:19:39;;;;;;;20.63;18.80;;;;;;;;;;5124531;28;20456;-81
2023/11/06 08:22:08;;;;;;;19.73;18.50;;;;;;;;;;5124747;28;20471;-81
2023/11/06 08:24:36;;;;;;;19.53;18.20;;;;;;;;;;5124683;28;20637;-82
2023/11/06 08:27:04;;;;;;;21.17;19.50;;;;;;;;;;5124736;28;20461;-81
2023/11/06 08:29:31;;;;;;;24.63;18.63;;;;;;;;;;5131711;27;20467;-84
2023/11/06 08:31:59;;;;;;;19.97;18.40;;;;;;;;;;5124237;28;20444;-81
2023/11/06 08:34:26;;;;;;;20.40;18.80;;;;;;;;;;5124517;28;20484;-81
2023/11/06 08:36:55;;;;;;;21.10;19.40;;;;;;;;;;5125331;28;20443;-82
2023/11/06 08:39:22;;;;;;;20.40;18.80;;;;;;;;;;5124915;28;20516;-81
2023/11/06 08:41:51;;;;;;;19.87;17.83;;;;;;;;;;5124998;28;20466;-82
2023/11/06 08:44:18;;;;;;;20.30;18.93;;;;;;;;;;5124778;28;20455;-83
2023/11/06 08:46:45;;;;;;;20.40;18.90;;;;;;;;;;5125074;28;20451;-81
2023/11/06 08:49:14;;;;;;;20.47;18.97;;;;;;;;;;5124465;28;20444;-81
2023/11/06 08:51:41;;;;;;;20.27;18.83;;;;;;;;;;5124069;28;20456;-81
2023/11/06 08:54:09;;;;;;;21.63;19.57;;;;;;;;;;5123100;28;20825;-80
2023/11/06 08:56:36;;;;;;;22.77;20.90;;;;;;;;;;5124582;28;20447;-82
2023/11/06 08:59:05;;;;;;;21.23;19.27;;;;;;;;;;5129719;27;20458;-80
2023/11/06 09:01:32;;;;;;;21.67;19.77;;;;;;;;;;5141570;27;21193;-81
2023/11/06 09:03:59;;;;;;;21.40;19.70;;;;;;;;;;5126957;27;20455;-80
2023/11/06 09:06:27;;;;;;;22.20;20.70;;;;;;;;;;5131786;27;20432;-81
2023/11/06 09:08:54;;;;;;;19.63;18.30;;;;;;;;;;5144606;27;20482;-81
2023/11/06 09:11:21;;;;;;;19.67;18.33;;;;;;;;;;5131828;27;20460;-81
2023/11/06 09:13:48;;;;;;;19.30;18.10;;;;;;;;;;5123403;27;20487;-82
2023/11/06 09:16:17;;;;;;;19.43;18.07;;;;;;;;;;5128354;27;20455;-81
2023/11/06 09:18:44;;;;;;;22.70;20.93;;;;;;;;;;5130620;27;20482;-79
2023/11/06 09:21:13;;;;;;;20.20;18.77;;;;;;;;;;5120308;28;20455;-80
2023/11/06 09:23:40;;;;;;;21.20;19.60;;;;;;;;;;5117557;28;20438;-79
2023/11/06 09:26:09;;;;;;;21.73;20.00;;;;;;;;;;5117364;28;20452;-80
2023/11/06 09:28:36;;;;;;;19.70;18.43;;;;;;;;;;5119186;28;20475;-80
2023/11/06 09:31:04;;;;;;;19.93;18.83;;;;;;;;;;5119064;28;20563;-80
2023/11/06 09:33:32;;;;;;;21.83;20.23;;;;;;;;;;5119105;28;20478;-81
2023/11/06 09:35:59;;;;;;;21.87;19.80;;;;;;;;;;5117871;28;20436;-80
2023/11/06 09:38:27;;;;;;;21.07;19.13;;;;;;;;;;5118282;28;20991;-80
2023/11/06 09:40:54;;;;;;;20.53;19.27;;;;;;;;;;5118988;28;20477;-81
2023/11/06 09:43:21;;;;;;;20.43;19.00;;;;;;;;;;5119670;28;20440;-82
2023/11/06 09:45:48;;;;;;;20.47;18.97;;;;;;;;;;5119373;28;20475;-83
2023/11/06 09:48:19;;;;;;;19.27;18.27;;;;;;;;;;5124103;27;20483;-83
2023/11/06 09:50:49;;;;;;;21.50;19.80;;;;;;;;;;5119578;28;20770;-83
2023/11/06 09:53:17;;;;;;;20.33;19.03;;;;;;;;;;5120091;28;20464;-84
2023/11/06 09:55:45;;;;;;;21.67;19.90;;;;;;;;;;5136178;28;20459;-80
2023/11/06 09:58:12;;;;;;;21.77;19.93;;;;;;;;;;5130385;27;20480;-83
2023/11/06 10:00:40;;;;;;;21.70;20.27;;;;;;;;;;5120065;28;20459;-83
2023/11/06 10:03:07;;;;;;;23.63;21.87;;;;;;;;;;5138258;28;20454;-82
2023/11/06 10:05:34;;;;;;;22.20;20.17;;;;;;;;;;5140938;28;20435;-82
2023/11/06 10:08:04;;;;;;;21.03;19.73;;;;;;;;;;5141359;27;20548;-83
2023/11/06 10:10:32;;;;;;;22.33;20.53;;;;;;;;;;5142510;28;20498;-86
2023/11/06 10:13:04;;;;;;;21.63;19.80;;;;;;;;;;5141945;28;20475;-82
2023/11/06 10:15:31;;;;;;;22.30;20.00;;;;;;;;;;5142164;28;20439;-82
2023/11/06 10:18:12;;;;;;;21.37;19.53;;;;;;;;;;5140498;27;20457;-83
2023/11/06 10:20:41;;;;;;;22.43;20.40;;;;;;;;;;5142136;28;20450;-82
2023/11/06 10:23:09;;;;;;;25.10;22.80;;;;;;;;;;5142297;28;20447;-83
2023/11/06 10:25:38;;;;;;;22.60;20.53;;;;;;;;;;5142210;28;20430;-84
2023/11/06 10:28:17;;;;;;;23.43;21.93;;;;;;;;;;5133049;27;20484;-83
2023/11/06 10:30:46;;;;;;;21.90;20.37;;;;;;;;;;5121425;28;20531;-82
2023/11/06 10:33:14;;;;;;;21.10;19.43;;;;;;;;;;5124625;28;20475;-83
2023/11/06 10:35:41;;;;;;;19.67;18.47;;;;;;;;;;5125017;28;21004;-82
2023/11/06 10:38:10;;;;;;;20.27;18.87;;;;;;;;;;5126022;28;20506;-84
2023/11/06 10:40:37;;;;;;;22.33;20.47;;;;;;;;;;5126194;28;20878;-84
2023/11/06 10:43:04;;;;;;;21.87;20.30;;;;;;;;;;5126047;28;20460;-83
2023/11/06 10:45:33;;;;;;;20.90;19.37;;;;;;;;;;5124668;28;20875;-84
2023/11/06 10:48:04;;;;;;;20.77;19.27;;;;;;;;;;5126012;28;20467;-85
2023/11/06 10:50:32;;;;;;;21.50;19.60;;;;;;;;;;5126210;28;20444;-83
2023/11/06 10:53:00;;;;;;;21.23;19.60;;;;;;;;;;5125669;28;20472;-83
2023/11/06 10:55:29;;;;;;;20.43;19.03;;;;;;;;;;5124399;28;20428;-83
2023/11/06 10:57:56;;;;;;;23.30;21.90;;;;;;;;;;5119632;27;20518;-77
2023/11/06 11:00:24;;;;;;;20.50;19.20;;;;;;;;;;5114319;28;20508;-76
2023/11/06 11:02:51;;;;;;;20.73;19.40;;;;;;;;;;5122890;27;20444;-83
2023/11/06 11:05:19;;;;;;;20.63;19.10;;;;;;;;;;5143457;27;20438;-84
2023/11/06 11:07:54;;;;;;;21.47;19.87;;;;;;;;;;5125993;27;20471;-84
2023/11/06 11:10:26;;;;;;;19.87;18.70;;;;;;;;;;5123385;28;20926;-84
2023/11/06 11:12:57;;;;;;;20.03;18.50;;;;;;;;;;5122719;28;20420;-84
2023/11/06 11:15:25;;;;;;;20.67;19.03;;;;;;;;;;5122257;28;20512;-84
2023/11/06 11:17:59;;;;;;;21.37;20.00;;;;;;;;;;5122591;28;20782;-84
2023/11/06 11:20:27;;;;;;;20.30;19.20;;;;;;;;;;5122391;28;20454;-84
2023/11/06 11:23:03;;;;;;;22.33;20.00;;;;;;;;;;5122582;28;20448;-85
2023/11/06 11:25:49;;;;;;;20.67;19.10;;;;;;;;;;5122359;28;20469;-83
2023/11/06 11:28:18;;;;;;;21.50;19.80;;;;;;;;;;5122189;28;20475;-84
2023/11/06 11:30:45;;;;;;;20.70;19.20;;;;;;;;;;5122730;28;20497;-83
2023/11/06 11:33:12;;;;;;;21.20;19.37;;;;;;;;;;5122697;28;20440;-84
2023/11/06 11:35:48;;;;;;;20.57;19.17;;;;;;;;;;5121432;28;20463;-84
2023/11/06 11:38:22;;;;;;;20.80;19.30;;;;;;;;;;5122172;28;20456;-83
2023/11/06 11:41:14;;;;;;;21.27;19.60;;;;;;;;;;5122879;28;20889;-83
2023/11/06 11:43:47;;;;;;;20.43;19.13;;;;;;;;;;5107409;27;20491;-83
2023/11/06 11:46:48;;;;;;;21.90;20.47;;;;;;;;;;5136850;27;20467;-83
2023/11/06 11:49:30;;;;;;;21.50;20.20;;;;;;;;;;5133340;27;20485;-83
2023/11/06 11:51:57;;;;;;;21.70;20.23;;;;;;;;;;5137900;27;20462;-82
2023/11/06 11:54:28;;;;;;;21.10;19.70;;;;;;;;;;5141588;27;20514;-83
2023/11/06 11:56:55;;;;;;;21.10;19.50;;;;;;;;;;5139560;27;20442;-84
2023/11/06 11:59:25;;;;;;;20.17;18.97;;;;;;;;;;5121231;28;20440;-82
2023/11/06 12:01:52;;;;;;;20.30;18.90;;;;;;;;;;5121379;28;20451;-83
2023/11/06 12:04:20;;;;;;;20.60;18.83;;;;;;;;;;5120859;28;20440;-83
2023/11/06 12:06:48;;;;;;;20.37;19.00;;;;;;;;;;5122752;27;20452;-83
2023/11/06 12:09:15;;;;;;;21.10;19.33;;;;;;;;;;5121344;28;20468;-82
2023/11/06 12:11:46;;;;;;;20.57;18.97;;;;;;;;;;5121617;28;20753;-84
2023/11/06 12:14:13;;;;;;;19.53;18.33;;;;;;;;;;5121386;28;20509;-84
2023/11/06 12:16:53;;;;;;;20.50;19.17;;;;;;;;;;5121735;28;20451;-84
2023/11/06 12:19:20;;;;;;;20.73;19.53;;;;;;;;;;5122131;28;20429;-84
2023/11/06 12:22:00;;;;;;;20.60;19.03;;;;;;;;;;5121534;28;20448;-84
2023/11/06 12:24:28;;;;;;;21.07;19.67;;;;;;;;;;5120884;28;20505;-84
2023/11/06 12:26:57;;;;;;;20.97;19.47;;;;;;;;;;5121376;28;20448;-84
2023/11/06 12:29:28;;;;;;;19.80;18.57;;;;;;;;;;5129018;27;20478;-77
2023/11/06 12:31:57;;;;;;;21.17;19.53;;;;;;;;;;5131471;27;20456;-79
2023/11/06 12:34:25;;;;;;;20.27;18.87;;;;;;;;;;5111267;28;20492;-75
2023/11/06 12:37:03;;;;;;;21.33;19.50;;;;;;;;;;5111896;28;20455;-76
2023/11/06 12:39:33;;;;;;;22.63;20.30;;;;;;;;;;5112284;28;20432;-76
2023/11/06 12:42:03;;;;;;;21.03;19.00;;;;;;;;;;5112033;28;20434;-76
2023/11/06 12:44:36;;;;;;;20.13;18.57;;;;;;;;;;5111255;28;20539;-79
2023/11/06 12:47:05;;;;;;;21.67;20.27;;;;;;;;;;5112175;28;20539;-79
2023/11/06 12:49:48;;;;;;;19.33;18.10;;;;;;;;;;5111928;28;20432;-78
2023/11/06 12:52:17;;;;;;;20.43;19.17;;;;;;;;;;5112294;28;20436;-77
2023/11/06 12:54:47;;;;;;;19.33;18.20;;;;;;;;;;5109846;28;20480;-77
2023/11/06 12:57:16;;;;;;;21.10;19.40;;;;;;;;;;5111246;28;21181;-77
2023/11/06 12:59:43;;;;;;;20.70;19.00;;;;;;;;;;5111764;28;20422;-78
2023/11/06 13:02:12;;;;;;;20.80;19.30;;;;;;;;;;5111451;28;21235;-77
2023/11/06 13:04:39;;;;;;;20.93;19.23;;;;;;;;;;5110906;28;20540;-77
2023/11/06 13:07:06;;;;;;;20.10;18.80;;;;;;;;;;5111439;28;20467;-76
2023/11/06 13:09:33;;;;;;;20.20;18.80;;;;;;;;;;5130208;27;20846;-79
2023/11/06 13:12:00;;;;;;;20.83;19.20;;;;;;;;;;5130511;27;20482;-77
2023/11/06 13:14:28;;;;;;;20.90;19.30;;;;;;;;;;5129740;27;20479;-77
2023/11/06 13:16:55;;;;;;;20.73;19.03;;;;;;;;;;5127838;27;20520;-78
2023/11/06 13:19:28;;;;;;;21.03;19.47;;;;;;;;;;5122682;27;20446;-86
2023/11/06 13:21:58;;;;;;;20.50;19.10;;;;;;;;;;5138316;27;21008;-77
2023/11/06 13:24:28;;;;;;;21.77;20.10;;;;;;;;;;5131819;27;20454;-77
2023/11/06 13:26:55;;;;;;;21.93;20.07;;;;;;;;;;5132592;27;20515;-78
2023/11/06 13:29:22;;;;;;;20.67;19.37;;;;;;;;;;5132372;27;20786;-80
2023/11/06 13:31:49;;;;;;;21.13;19.50;;;;;;;;;;5132577;27;20454;-76
2023/11/06 13:34:16;;;;;;;20.80;19.00;;;;;;;;;;5116762;27;20469;-79
2023/11/06 13:36:48;;;;;;;19.93;18.17;;;;;;;;;;5112136;28;20508;-83
2023/11/06 13:39:19;;;;;;;19.60;18.20;;;;;;;;;;5116439;28;20488;-84
2023/11/06 13:41:47;;;;;;;20.20;18.90;;;;;;;;;;5123994;28;20455;-84
2023/11/06 13:44:14;;;;;;;21.10;19.63;;;;;;;;;;5124159;28;20440;-84
2023/11/06 13:46:42;;;;;;;21.37;20.07;;;;;;;;;;5123516;28;20554;-84
2023/11/06 13:49:11;;;;;;;20.77;19.20;;;;;;;;;;5126644;28;20631;-85
2023/11/06 13:51:42;;;;;;;20.67;19.20;;;;;;;;;;5127688;28;20436;-85
2023/11/06 13:54:22;;;;;;;21.77;20.13;;;;;;;;;;5123340;28;20935;-85
2023/11/06 13:56:52;;;;;;;21.80;20.00;;;;;;;;;;5112237;28;20443;-77
2023/11/06 13:59:24;;;;;;;19.60;18.40;;;;;;;;;;5110899;28;20547;-76
2023/11/06 14:01:52;;;;;;;20.03;18.63;;;;;;;;;;5115988;28;20967;-80
2023/11/06 14:04:19;;;;;;;19.90;18.60;;;;;;;;;;5117528;28;20453;-78
2023/11/06 14:06:48;;;;;;;20.57;19.10;;;;;;;;;;5122939;27;20451;-78
2023/11/06 14:09:34;;;;;;;19.67;18.53;;;;;;;;;;5139627;27;20922;-78
2023/11/06 14:12:01;;;;;;;20.57;19.03;;;;;;;;;;5120065;27;20476;-78
2023/11/06 14:14:29;;;;;;;21.90;20.10;;;;;;;;;;5118791;27;20506;-79
2023/11/06 14:16:56;;;;;;;20.60;19.17;;;;;;;;;;5137905;27;20477;-78
2023/11/06 14:19:24;;;;;;;21.67;19.80;;;;;;;;;;5124444;27;20509;-79
2023/11/06 14:21:51;;;;;;;20.33;19.03;;;;;;;;;;5129114;27;20941;-78
2023/11/06 14:24:21;;;;;;;21.13;19.33;;;;;;;;;;5114265;27;20464;-78
2023/11/06 14:26:49;;;;;;;20.50;19.40;;;;;;;;;;5125495;27;20459;-78